Time;durP1;ratioP1;P1;durP2;ratioP2;P2;SDS_P1;SDS_P2;PMS_P1;PMS_P2;Temp;Humidity;BMP_temperature;BMP_pressure;BME280_temperature;BME280_humidity;BME280_pressure;Samples;Min_cycle;Max_cycle;Signal;HPM_P1;HPM_P2
2021/10/27 00:00:36;;;;;;;1.63;1.00;;;13.00;99.90;;;;;;4995636;28;20429;-58
2021/10/27 00:03:03;;;;;;;3.37;1.17;;;13.00;99.90;;;;;;4994886;28;20433;-58
2021/10/27 00:05:30;;;;;;;2.07;1.00;;;13.10;99.90;;;;;;4995645;28;20586;-57
2021/10/27 00:07:57;;;;;;;1.80;1.20;;;13.00;99.90;;;;;;4978036;28;20476;-57
2021/10/27 00:10:24;;;;;;;1.93;1.63;;;13.00;99.90;;;;;;5006959;28;20486;-57
2021/10/27 00:12:51;;;;;;;2.10;1.20;;;13.00;99.90;;;;;;5034768;28;20789;-58
2021/10/27 00:15:18;;;;;;;3.33;1.50;;;13.00;99.90;;;;;;5003102;28;20484;-58
2021/10/27 00:17:47;;;;;;;4.50;1.67;;;13.00;99.90;;;;;;4995114;28;20474;-57
2021/10/27 00:20:14;;;;;;;4.30;2.07;;;13.00;99.90;;;;;;4994416;28;20482;-58
2021/10/27 00:22:41;;;;;;;3.00;1.23;;;13.00;99.90;;;;;;4995245;28;20618;-57
2021/10/27 00:25:10;;;;;;;5.17;2.10;;;13.00;99.90;;;;;;4994347;28;20475;-57
2021/10/27 00:27:37;;;;;;;2.70;1.70;;;13.00;99.90;;;;;;4995023;28;20433;-58
2021/10/27 00:30:05;;;;;;;7.53;1.70;;;13.00;99.90;;;;;;4994546;28;20512;-58
2021/10/27 00:32:31;;;;;;;6.20;2.70;;;13.00;99.90;;;;;;4994998;28;20531;-58
2021/10/27 00:34:58;;;;;;;2.70;1.67;;;13.10;99.90;;;;;;4994350;28;20478;-58
2021/10/27 00:37:26;;;;;;;4.63;2.33;;;13.10;99.90;;;;;;4993292;28;20888;-58
2021/10/27 00:39:53;;;;;;;2.43;1.93;;;13.10;99.90;;;;;;4994261;28;20465;-58
2021/10/27 00:42:20;;;;;;;6.70;1.70;;;13.10;99.90;;;;;;4994973;28;20513;-58
2021/10/27 00:44:47;;;;;;;5.93;1.87;;;13.20;99.90;;;;;;4994319;28;20476;-58
2021/10/27 00:47:16;;;;;;;3.73;2.13;;;13.20;99.90;;;;;;4994340;28;20796;-57
2021/10/27 00:49:44;;;;;;;6.93;2.10;;;13.30;99.90;;;;;;4977310;28;20504;-57
2021/10/27 00:52:14;;;;;;;4.83;2.40;;;13.20;99.90;;;;;;4995939;28;20482;-58
2021/10/27 00:54:43;;;;;;;3.70;2.13;;;13.30;99.90;;;;;;5000250;28;20467;-58
2021/10/27 00:57:12;;;;;;;4.97;2.20;;;13.20;99.90;;;;;;4995655;28;20466;-58
2021/10/27 00:59:41;;;;;;;9.20;2.97;;;13.20;99.90;;;;;;4993322;28;20568;-58
2021/10/27 01:02:10;;;;;;;4.80;2.90;;;13.30;99.90;;;;;;4994866;28;20422;-58
2021/10/27 01:04:37;;;;;;;3.07;2.50;;;13.30;99.90;;;;;;4994061;28;20902;-58
2021/10/27 01:07:04;;;;;;;3.70;2.17;;;13.30;99.90;;;;;;4994447;28;20848;-58
2021/10/27 01:09:33;;;;;;;9.20;2.67;;;13.30;99.90;;;;;;4993380;28;20556;-57
2021/10/27 01:12:00;;;;;;;3.90;2.33;;;13.30;99.90;;;;;;5033071;28;20439;-58
2021/10/27 01:14:34;;;;;;;3.57;2.00;;;13.30;99.90;;;;;;5001180;28;20523;-58
2021/10/27 01:17:05;;;;;;;3.23;2.80;;;13.20;99.90;;;;;;4994400;28;20955;-57
2021/10/27 01:19:41;;;;;;;5.17;2.83;;;13.20;99.90;;;;;;4993987;28;20838;-58
2021/10/27 01:22:08;;;;;;;5.40;3.00;;;13.20;99.90;;;;;;4994149;28;20415;-58
2021/10/27 01:24:35;;;;;;;4.23;2.50;;;13.20;99.90;;;;;;4993743;28;20469;-58
2021/10/27 01:27:03;;;;;;;6.10;2.30;;;13.20;99.90;;;;;;4993772;28;20438;-58
2021/10/27 01:29:29;;;;;;;5.13;3.13;;;13.10;99.90;;;;;;4992985;28;20458;-57
2021/10/27 01:31:58;;;;;;;4.33;2.40;;;13.10;99.90;;;;;;4993872;28;20927;-58
2021/10/27 01:34:24;;;;;;;10.70;2.57;;;13.10;99.90;;;;;;4993027;28;20478;-58
2021/10/27 01:36:52;;;;;;;7.00;2.20;;;13.10;99.90;;;;;;4993469;28;20544;-58
2021/10/27 01:39:19;;;;;;;4.07;2.60;;;13.10;99.90;;;;;;4975872;28;21011;-58
2021/10/27 01:41:45;;;;;;;4.73;2.30;;;13.10;99.90;;;;;;5001554;28;20420;-58
2021/10/27 01:44:12;;;;;;;5.83;2.77;;;13.20;99.90;;;;;;4994172;28;20473;-58
2021/10/27 01:46:40;;;;;;;3.13;2.40;;;13.10;99.90;;;;;;4993491;28;20448;-58
2021/10/27 01:49:09;;;;;;;6.60;2.73;;;13.10;99.90;;;;;;4993068;28;20548;-58
2021/10/27 01:51:37;;;;;;;3.57;2.50;;;13.20;99.90;;;;;;4993546;28;20912;-58
2021/10/27 01:54:05;;;;;;;6.93;2.80;;;13.10;99.90;;;;;;4992919;28;20462;-58
2021/10/27 01:56:33;;;;;;;4.33;2.73;;;13.10;99.90;;;;;;4993553;28;20418;-57
2021/10/27 01:59:00;;;;;;;2.53;2.30;;;13.10;99.90;;;;;;4992615;28;20466;-58
2021/10/27 02:01:27;;;;;;;8.40;3.67;;;13.10;99.90;;;;;;4993384;28;20429;-58
2021/10/27 02:03:55;;;;;;;4.53;2.43;;;13.10;99.90;;;;;;4992794;28;20461;-58
2021/10/27 02:06:22;;;;;;;4.20;2.50;;;13.10;99.90;;;;;;4992986;28;20528;-57
2021/10/27 02:08:49;;;;;;;2.80;2.43;;;13.10;99.90;;;;;;4992622;28;20984;-58
2021/10/27 02:11:15;;;;;;;5.13;2.60;;;13.10;99.90;;;;;;5019434;28;20420;-58
2021/10/27 02:13:52;;;;;;;5.00;3.37;;;13.00;99.90;;;;;;5000000;28;20811;-58
2021/10/27 02:16:19;;;;;;;4.30;3.20;;;13.00;99.90;;;;;;4992709;28;20420;-57
2021/10/27 02:18:46;;;;;;;3.13;2.70;;;13.00;99.90;;;;;;4992735;28;20493;-57
2021/10/27 02:21:13;;;;;;;3.47;2.50;;;13.00;99.90;;;;;;4991833;28;20453;-58
2021/10/27 02:23:40;;;;;;;4.37;2.50;;;13.00;99.90;;;;;;4992249;28;20485;-58
2021/10/27 02:26:07;;;;;;;6.00;3.00;;;13.00;99.90;;;;;;4992539;28;20441;-57
2021/10/27 02:28:34;;;;;;;6.37;2.40;;;13.00;99.90;;;;;;4992340;28;20484;-58
2021/10/27 02:31:01;;;;;;;4.07;2.50;;;13.00;99.90;;;;;;4991076;28;20457;-58
2021/10/27 02:33:28;;;;;;;2.80;2.60;;;13.00;99.90;;;;;;4999284;28;20989;-59
2021/10/27 02:35:55;;;;;;;4.80;2.90;;;13.00;99.90;;;;;;4995803;28;20465;-58
2021/10/27 02:38:41;;;;;;;6.53;3.60;;;13.00;99.90;;;;;;4992596;28;20887;-58
2021/10/27 02:41:11;;;;;;;2.87;2.67;;;13.00;99.90;;;;;;4993266;28;20635;-58
2021/10/27 02:43:38;;;;;;;5.73;2.50;;;13.00;99.90;;;;;;4975226;28;20968;-58
2021/10/27 02:46:08;;;;;;;4.00;2.83;;;12.90;99.90;;;;;;5012101;28;20871;-58
2021/10/27 02:48:35;;;;;;;3.33;2.40;;;12.90;99.90;;;;;;5011574;28;20542;-58
2021/10/27 02:51:02;;;;;;;6.30;2.13;;;12.90;99.90;;;;;;4995867;28;20453;-57
2021/10/27 02:53:29;;;;;;;4.70;2.53;;;12.90;99.90;;;;;;4991983;28;20461;-57
2021/10/27 02:55:56;;;;;;;5.33;2.50;;;12.80;99.90;;;;;;4992514;28;20489;-58
2021/10/27 02:58:23;;;;;;;5.57;2.73;;;12.80;99.90;;;;;;4991404;28;20464;-58
2021/10/27 03:00:51;;;;;;;3.93;2.43;;;12.70;99.90;;;;;;4992502;28;20429;-58
2021/10/27 03:03:19;;;;;;;4.87;3.20;;;12.70;99.90;;;;;;5001051;28;20935;-58
2021/10/27 03:05:46;;;;;;;6.40;3.13;;;12.60;99.90;;;;;;5006341;28;20448;-57
2021/10/27 03:08:12;;;;;;;6.07;2.90;;;12.60;99.90;;;;;;5011654;28;20424;-57
2021/10/27 03:10:39;;;;;;;3.40;3.10;;;12.50;99.90;;;;;;5011834;28;20423;-58
2021/10/27 03:13:06;;;;;;;6.07;3.17;;;12.50;99.90;;;;;;5008607;28;20452;-58
2021/10/27 03:15:33;;;;;;;6.93;3.50;;;12.50;99.90;;;;;;4992222;28;20441;-58
2021/10/27 03:18:00;;;;;;;5.77;2.93;;;12.40;99.90;;;;;;4992020;28;20469;-58
2021/10/27 03:20:27;;;;;;;4.90;2.87;;;12.40;99.90;;;;;;4991458;28;20500;-57
2021/10/27 03:22:54;;;;;;;5.33;3.23;;;12.30;99.90;;;;;;4992403;28;20785;-58
2021/10/27 03:25:21;;;;;;;7.60;3.97;;;12.30;99.90;;;;;;4991621;28;20823;-57
2021/10/27 03:27:48;;;;;;;3.37;2.90;;;12.30;99.90;;;;;;4991701;28;20962;-58
2021/10/27 03:30:14;;;;;;;6.83;3.10;;;12.30;99.90;;;;;;4990584;28;20455;-57
2021/10/27 03:32:41;;;;;;;4.07;3.00;;;12.30;99.90;;;;;;4993877;28;20423;-57
2021/10/27 03:35:08;;;;;;;5.83;3.23;;;12.30;99.90;;;;;;4995321;28;21007;-57
2021/10/27 03:37:35;;;;;;;5.00;3.07;;;12.20;99.90;;;;;;4996231;28;20463;-57
2021/10/27 03:40:04;;;;;;;4.83;2.70;;;12.20;99.90;;;;;;4995412;28;20518;-58
2021/10/27 03:42:31;;;;;;;3.33;2.77;;;12.20;99.90;;;;;;4987600;28;20439;-57
2021/10/27 03:44:58;;;;;;;5.07;3.20;;;12.20;99.90;;;;;;5015821;28;20478;-58
2021/10/27 03:47:25;;;;;;;6.53;3.17;;;12.20;99.90;;;;;;4995605;28;20432;-57
2021/10/27 03:49:52;;;;;;;4.70;3.50;;;12.20;99.90;;;;;;4994962;28;20524;-57
2021/10/27 03:52:19;;;;;;;3.20;2.70;;;12.20;99.90;;;;;;4995714;28;20422;-58
2021/10/27 03:54:46;;;;;;;4.03;2.90;;;12.10;99.90;;;;;;4995074;28;20525;-58
2021/10/27 03:57:12;;;;;;;4.43;3.03;;;12.10;99.90;;;;;;4995425;28;20470;-58
2021/10/27 03:59:39;;;;;;;5.53;2.83;;;12.00;99.90;;;;;;4995287;28;20464;-57
2021/10/27 04:02:06;;;;;;;4.30;3.40;;;11.90;99.90;;;;;;4995487;28;20792;-58
2021/10/27 04:04:33;;;;;;;5.93;2.80;;;11.90;99.90;;;;;;4994671;28;20529;-57
2021/10/27 04:07:00;;;;;;;6.90;3.33;;;11.80;99.90;;;;;;5013630;28;20431;-58
2021/10/27 04:09:27;;;;;;;5.77;3.00;;;11.80;99.90;;;;;;5015984;28;20482;-58
2021/10/27 04:11:54;;;;;;;4.10;2.47;;;11.70;99.90;;;;;;5022781;28;20427;-57
2021/10/27 04:14:21;;;;;;;4.10;3.20;;;11.60;99.90;;;;;;4997322;28;20466;-58
2021/10/27 04:16:48;;;;;;;6.37;3.23;;;11.50;99.90;;;;;;4995745;28;20495;-58
2021/10/27 04:19:15;;;;;;;4.63;3.20;;;11.50;99.90;;;;;;4995037;28;20472;-58
2021/10/27 04:21:42;;;;;;;5.27;4.23;;;11.40;99.90;;;;;;4995486;28;20498;-57
2021/10/27 04:24:08;;;;;;;4.13;3.53;;;11.30;99.90;;;;;;4994656;28;20478;-57
2021/10/27 04:26:35;;;;;;;5.03;3.10;;;11.30;99.90;;;;;;4977800;28;20439;-58
2021/10/27 04:29:02;;;;;;;3.97;3.20;;;11.30;99.90;;;;;;5011953;28;20462;-57
2021/10/27 04:31:30;;;;;;;9.00;3.73;;;11.30;99.90;;;;;;5014743;28;20921;-57
2021/10/27 04:33:57;;;;;;;5.97;3.77;;;11.30;99.90;;;;;;5013783;28;20491;-57
2021/10/27 04:36:24;;;;;;;8.80;4.10;;;11.20;99.90;;;;;;4995041;28;20548;-57
2021/10/27 04:38:51;;;;;;;6.03;3.93;;;11.20;99.90;;;;;;4994214;28;20981;-57
2021/10/27 04:41:18;;;;;;;6.07;3.33;;;11.20;99.90;;;;;;4995172;28;20422;-58
2021/10/27 04:43:45;;;;;;;5.40;2.70;;;11.10;99.90;;;;;;4993300;28;20476;-57
2021/10/27 04:46:11;;;;;;;7.90;3.60;;;11.10;99.90;;;;;;4994441;28;20822;-57
2021/10/27 04:48:38;;;;;;;3.53;2.80;;;10.90;99.90;;;;;;4994159;28;20472;-57
2021/10/27 04:51:06;;;;;;;5.17;3.20;;;10.90;99.90;;;;;;4994551;28;20809;-58
2021/10/27 04:53:34;;;;;;;7.53;3.33;;;10.90;99.90;;;;;;4994147;28;20481;-57
2021/10/27 04:56:01;;;;;;;3.50;3.07;;;10.90;99.90;;;;;;4994596;28;20803;-58
2021/10/27 04:58:30;;;;;;;3.63;3.20;;;10.90;99.90;;;;;;4993516;28;20470;-58
2021/10/27 05:00:57;;;;;;;4.23;3.03;;;10.80;99.90;;;;;;4994406;28;20429;-57
2021/10/27 05:03:24;;;;;;;5.40;3.50;;;10.70;99.90;;;;;;4993823;28;20483;-57
2021/10/27 05:05:56;;;;;;;4.80;2.87;;;10.80;99.90;;;;;;4977539;28;20482;-58
2021/10/27 05:08:23;;;;;;;3.83;3.33;;;10.70;99.90;;;;;;4993704;28;20459;-57
2021/10/27 05:10:53;;;;;;;5.70;3.60;;;10.70;99.90;;;;;;5013776;28;20427;-58
2021/10/27 05:13:20;;;;;;;3.83;3.30;;;10.60;99.90;;;;;;5021808;28;20455;-58
2021/10/27 05:15:48;;;;;;;4.67;3.00;;;10.60;99.90;;;;;;4994142;28;20433;-57
2021/10/27 05:18:15;;;;;;;6.47;3.70;;;10.50;99.90;;;;;;4993250;28;20465;-57
2021/10/27 05:20:44;;;;;;;5.27;3.70;;;10.50;99.90;;;;;;4994534;28;20829;-58
2021/10/27 05:23:11;;;;;;;9.40;4.40;;;10.50;99.90;;;;;;4993530;28;20427;-57
2021/10/27 05:25:38;;;;;;;12.53;7.77;;;10.40;99.90;;;;;;4993974;28;20439;-58
2021/10/27 05:28:05;;;;;;;16.47;8.83;;;10.40;99.90;;;;;;4993181;28;20422;-58
2021/10/27 05:30:32;;;;;;;15.90;10.27;;;10.30;99.90;;;;;;4993634;28;20445;-57
2021/10/27 05:33:00;;;;;;;17.60;10.53;;;10.30;99.90;;;;;;4993776;28;21014;-58
2021/10/27 05:35:29;;;;;;;16.83;11.47;;;10.30;99.90;;;;;;4993670;28;20474;-57
2021/10/27 05:37:57;;;;;;;18.77;11.67;;;10.30;99.90;;;;;;4993440;28;20871;-57
2021/10/27 05:40:24;;;;;;;21.27;9.77;;;10.30;99.90;;;;;;4993296;28;20466;-57
2021/10/27 05:42:51;;;;;;;12.47;9.20;;;10.20;99.90;;;;;;4993785;28;20437;-57
2021/10/27 05:45:22;;;;;;;13.03;8.70;;;10.20;99.90;;;;;;4993228;28;20469;-57
2021/10/27 05:47:56;;;;;;;17.87;10.47;;;10.20;99.90;;;;;;4998677;28;20517;-58
2021/10/27 05:55:36;;;;;;;11.43;7.83;;;10.20;99.90;;;;;;5013649;28;20783;-58
2021/10/27 05:58:04;;;;;;;10.33;7.20;;;10.20;99.90;;;;;;5004382;28;21129;-58
2021/10/27 06:00:32;;;;;;;8.07;6.10;;;10.10;99.90;;;;;;4993712;28;20441;-57
2021/10/27 06:03:01;;;;;;;9.43;6.17;;;10.10;99.90;;;;;;4993618;28;20517;-58
2021/10/27 06:05:29;;;;;;;7.37;5.17;;;10.10;99.90;;;;;;4992807;28;20471;-57
2021/10/27 06:07:58;;;;;;;7.80;5.43;;;10.10;99.90;;;;;;4993130;28;20508;-58
2021/10/27 06:10:25;;;;;;;9.27;5.10;;;10.10;99.90;;;;;;5005621;28;20450;-57
2021/10/27 06:13:15;;;;;;;8.90;5.47;;;10.10;99.90;;;;;;5032680;28;20941;-57
2021/10/27 06:15:42;;;;;;;6.60;5.27;;;10.20;99.90;;;;;;4996592;28;20494;-57
2021/10/27 06:18:08;;;;;;;8.63;4.73;;;10.20;99.90;;;;;;4993526;28;20464;-57
2021/10/27 06:20:35;;;;;;;6.43;4.57;;;10.30;99.90;;;;;;5006639;28;20435;-57
2021/10/27 06:23:02;;;;;;;7.83;5.10;;;10.40;99.90;;;;;;4992511;28;20995;-57
2021/10/27 06:25:31;;;;;;;8.10;6.07;;;10.40;99.90;;;;;;4992876;28;20733;-58
2021/10/27 06:28:03;;;;;;;7.40;5.03;;;10.50;99.90;;;;;;4992700;28;20513;-57
2021/10/27 06:30:42;;;;;;;5.93;4.90;;;10.50;99.90;;;;;;4975189;28;20965;-57
2021/10/27 06:33:44;;;;;;;8.13;4.50;;;10.60;99.90;;;;;;4992129;28;20960;-57
2021/10/27 06:36:10;;;;;;;6.30;4.67;;;10.60;99.90;;;;;;4992619;28;20492;-57
2021/10/27 06:46:47;;;;;;;4.03;3.63;;;11.00;99.90;;;;;;4992453;28;20803;-57
2021/10/27 06:49:14;;;;;;;5.40;3.90;;;11.10;99.90;;;;;;4992140;28;21018;-57
2021/10/27 06:51:42;;;;;;;4.20;3.33;;;11.20;99.90;;;;;;4992439;28;20929;-57
2021/10/27 06:54:09;;;;;;;4.30;3.30;;;11.20;99.90;;;;;;4991899;28;20557;-57
2021/10/27 06:56:36;;;;;;;5.00;3.50;;;11.30;99.90;;;;;;4992098;28;20435;-57
2021/10/27 07:15:30;;;;;;;4.67;3.13;;;11.90;99.90;;;;;;5021578;28;20481;-57
2021/10/27 07:17:57;;;;;;;5.50;4.00;;;12.00;99.90;;;;;;5031201;28;20505;-57
2021/10/27 07:20:24;;;;;;;4.47;3.73;;;12.10;99.90;;;;;;5008655;28;20478;-56
2021/10/27 07:23:00;;;;;;;5.00;3.60;;;12.20;99.90;;;;;;4994609;28;20449;-57
2021/10/27 07:25:36;;;;;;;5.50;3.43;;;12.20;99.90;;;;;;4994491;28;20476;-57
2021/10/27 07:28:04;;;;;;;5.40;3.77;;;12.40;99.90;;;;;;4975568;28;20435;-58
2021/10/27 07:30:31;;;;;;;3.20;2.60;;;12.40;99.90;;;;;;4994724;28;20453;-56
2021/10/27 07:32:59;;;;;;;4.47;3.10;;;12.40;99.90;;;;;;4992341;28;20548;-57
2021/10/27 07:40:53;;;;;;;4.70;3.20;;;12.50;99.90;;;;;;4992099;28;20428;-57
2021/10/27 07:43:24;;;;;;;6.07;3.00;;;12.50;99.90;;;;;;4991851;28;20451;-57
2021/10/27 07:45:53;;;;;;;3.70;2.70;;;12.50;99.90;;;;;;4998616;28;20428;-57
2021/10/27 07:48:21;;;;;;;4.10;2.50;;;12.50;99.90;;;;;;5030653;28;20464;-57
2021/10/27 07:50:49;;;;;;;9.00;3.67;;;12.50;99.90;;;;;;5012536;28;20477;-57
2021/10/27 07:53:17;;;;;;;7.20;3.83;;;12.50;99.90;;;;;;5011078;28;20423;-57
2021/10/27 07:55:52;;;;;;;6.93;3.60;;;12.50;99.90;;;;;;4994089;28;20431;-57
2021/10/27 07:58:21;;;;;;;5.30;3.87;;;12.60;99.90;;;;;;5009414;28;20960;-57
2021/10/27 08:00:51;;;;;;;4.07;3.63;;;12.70;99.90;;;;;;5011436;28;20937;-57
2021/10/27 08:03:19;;;;;;;5.07;3.43;;;12.70;99.90;;;;;;5010932;28;20519;-57
2021/10/27 08:05:46;;;;;;;4.63;3.97;;;12.70;99.90;;;;;;4997453;28;20503;-57
2021/10/27 08:08:18;;;;;;;4.37;3.60;;;12.80;99.90;;;;;;4991165;28;20443;-57
2021/10/27 08:10:45;;;;;;;5.60;3.83;;;12.80;99.90;;;;;;5010536;28;20748;-57
2021/10/27 08:13:12;;;;;;;4.87;4.00;;;13.00;99.90;;;;;;5028810;28;20440;-57
2021/10/27 08:15:41;;;;;;;7.57;4.20;;;13.00;99.90;;;;;;4992052;28;20476;-57
2021/10/27 08:18:11;;;;;;;5.80;4.17;;;12.90;99.90;;;;;;4990807;28;20543;-57
2021/10/27 08:20:38;;;;;;;5.63;4.23;;;13.10;99.90;;;;;;4994462;28;20532;-57
2021/10/27 08:23:08;;;;;;;5.50;4.10;;;13.00;99.90;;;;;;5021713;28;20439;-57
2021/10/27 08:25:40;;;;;;;8.70;4.40;;;13.10;99.90;;;;;;5014687;28;20443;-57
2021/10/27 08:28:11;;;;;;;5.03;4.53;;;13.10;99.90;;;;;;5006373;28;20438;-58
2021/10/27 08:30:45;;;;;;;5.90;3.80;;;13.10;99.90;;;;;;4995226;28;20428;-57
2021/10/27 08:33:20;;;;;;;4.03;3.13;;;13.10;99.90;;;;;;5019461;28;20419;-57
2021/10/27 08:35:48;;;;;;;5.30;3.80;;;13.20;99.90;;;;;;5005556;28;20441;-57
2021/10/27 08:38:15;;;;;;;5.77;3.93;;;13.20;99.90;;;;;;4989544;28;20429;-57
2021/10/27 08:40:44;;;;;;;5.20;3.80;;;13.20;99.90;;;;;;5034467;28;20417;-57
2021/10/27 08:43:12;;;;;;;4.87;4.07;;;13.30;99.90;;;;;;5006814;28;20473;-60
2021/10/27 08:45:40;;;;;;;6.43;5.03;;;13.30;99.90;;;;;;5018587;28;20460;-60
2021/10/27 08:48:08;;;;;;;5.07;4.00;;;13.30;99.90;;;;;;5033363;28;20789;-61
2021/10/27 08:50:37;;;;;;;6.47;4.13;;;13.40;99.90;;;;;;5006011;28;20973;-61
2021/10/27 08:53:09;;;;;;;6.90;4.63;;;13.40;99.90;;;;;;5033835;28;20417;-61
2021/10/27 08:55:37;;;;;;;10.40;4.57;;;13.50;99.90;;;;;;5033860;28;20502;-61
2021/10/27 08:58:04;;;;;;;7.00;4.40;;;13.60;99.90;;;;;;5023434;28;20438;-61
2021/10/27 09:00:40;;;;;;;8.60;4.53;;;13.60;99.90;;;;;;5000845;28;20448;-62
2021/10/27 09:03:16;;;;;;;5.37;4.70;;;13.70;99.90;;;;;;5001332;28;20428;-61
2021/10/27 09:17:04;;;;;;;3.93;3.63;;;14.00;99.90;;;;;;4994165;28;20517;-61
2021/10/27 10:06:44;;;;;;;3.80;2.70;;;15.10;99.90;;;;;;4993203;28;20420;-61
2021/10/27 10:09:13;;;;;;;2.43;2.17;;;15.10;99.90;;;;;;5014834;28;20530;-61
2021/10/27 10:11:41;;;;;;;3.10;2.40;;;15.20;99.90;;;;;;5032598;28;20448;-61
2021/10/27 10:14:10;;;;;;;5.40;2.30;;;15.20;99.90;;;;;;4992887;28;20474;-61
2021/10/27 10:16:42;;;;;;;3.93;2.43;;;15.20;99.90;;;;;;4992882;28;20932;-61
2021/10/27 10:19:12;;;;;;;4.57;2.37;;;15.20;99.90;;;;;;4992695;28;20478;-61
2021/10/27 10:21:45;;;;;;;3.37;2.70;;;15.20;99.90;;;;;;5019039;28;20824;-61
2021/10/27 10:24:21;;;;;;;6.20;2.50;;;15.20;99.90;;;;;;5015619;28;20465;-61
2021/10/27 10:26:52;;;;;;;5.40;2.10;;;15.20;99.90;;;;;;5011597;28;20495;-61
2021/10/27 10:29:38;;;;;;;3.27;2.00;;;15.30;99.90;;;;;;5009996;28;20576;-62
2021/10/27 10:32:22;;;;;;;4.40;2.50;;;15.40;99.90;;;;;;5009540;28;20536;-61
2021/10/27 10:35:12;;;;;;;4.27;2.00;;;15.40;99.90;;;;;;5010173;28;20487;-61
2021/10/27 10:38:06;;;;;;;6.80;2.00;;;15.50;99.90;;;;;;4994834;28;20468;-61
2021/10/27 10:40:53;;;;;;;4.63;2.43;;;15.50;99.90;;;;;;4995713;28;21002;-61
2021/10/27 11:37:43;;;;;;;5.10;2.43;;;16.40;99.90;;;;;;5011514;28;20449;-61
2021/10/27 11:40:29;;;;;;;2.60;1.73;;;16.30;99.90;;;;;;5010497;28;20481;-61
2021/10/27 11:43:01;;;;;;;6.17;3.00;;;16.40;99.90;;;;;;5011235;28;20441;-61
2021/10/27 11:48:43;;;;;;;3.43;1.90;;;16.50;99.90;;;;;;5010386;28;20470;-61
2021/10/27 11:50:58;;;;;;;5.63;2.20;;;16.50;99.90;;;;;;4997975;28;20569;-61
2021/10/27 11:53:30;;;;;;;5.40;2.17;;;16.50;99.90;;;;;;4996947;28;21017;-61
2021/10/27 11:56:18;;;;;;;5.07;2.10;;;16.50;99.90;;;;;;4996185;28;20505;-60
2021/10/27 11:58:52;;;;;;;4.47;2.47;;;16.50;99.90;;;;;;4977570;28;20863;-60
2021/10/27 12:01:30;;;;;;;3.97;1.90;;;16.60;99.90;;;;;;4998258;28;20445;-60
2021/10/27 12:03:59;;;;;;;2.47;2.00;;;16.70;99.90;;;;;;5014668;28;20462;-61
2021/10/27 12:11:32;;;;;;;5.10;2.37;;;16.80;99.90;;;;;;5015146;28;20406;-60
2021/10/27 12:14:21;;;;;;;4.90;2.30;;;16.90;99.90;;;;;;4995846;28;20464;-61
2021/10/27 12:19:19;;;;;;;4.03;2.30;;;17.20;99.90;;;;;;4994391;28;20500;-62
2021/10/27 12:21:57;;;;;;;2.57;1.93;;;17.30;99.90;;;;;;4977979;28;20863;-61
2021/10/27 12:24:26;;;;;;;5.90;2.03;;;17.30;99.90;;;;;;4994496;28;20499;-61
2021/10/27 12:29:30;;;;;;;4.47;2.43;;;17.30;99.90;;;;;;5014235;28;20485;-61
2021/10/27 12:32:15;;;;;;;3.87;2.10;;;17.30;99.90;;;;;;4996742;28;20457;-61
2021/10/27 12:34:54;;;;;;;2.43;2.20;;;17.20;99.90;;;;;;5008490;28;20545;-60
2021/10/27 12:40:35;;;;;;;3.30;1.90;;;17.30;99.90;;;;;;5017676;28;20562;-61
2021/10/27 12:43:07;;;;;;;3.93;2.00;;;17.30;99.90;;;;;;4995800;28;20472;-61
2021/10/27 12:45:40;;;;;;;4.47;2.57;;;17.30;99.90;;;;;;5014768;28;20436;-61
2021/10/27 12:48:10;;;;;;;3.17;2.23;;;17.30;99.90;;;;;;5012309;28;20527;-60
2021/10/27 12:50:55;;;;;;;5.20;2.10;;;17.40;99.90;;;;;;5012380;28;20490;-61
2021/10/27 12:53:29;;;;;;;3.90;2.43;;;17.50;99.90;;;;;;5001734;28;21165;-61
2021/10/27 12:56:07;;;;;;;2.50;2.00;;;17.60;99.90;;;;;;4994109;28;20417;-61
2021/10/27 12:58:57;;;;;;;2.13;1.40;;;17.80;99.90;;;;;;5010699;28;20463;-61
2021/10/27 13:01:37;;;;;;;3.93;1.60;;;17.80;99.50;;;;;;4990041;28;20558;-61
2021/10/27 13:17:57;;;;;;;3.20;1.40;;;17.40;98.60;;;;;;5013465;28;20783;-61
2021/10/27 13:31:14;;;;;;;2.40;1.40;;;17.70;98.20;;;;;;4992070;28;21023;-61
2021/10/27 13:33:42;;;;;;;2.83;1.53;;;17.60;96.50;;;;;;4993468;28;20472;-61
2021/10/27 13:36:11;;;;;;;2.23;1.77;;;17.60;97.30;;;;;;4993652;28;20954;-62
2021/10/27 13:38:38;;;;;;;2.40;1.27;;;17.70;96.90;;;;;;4993531;28;20882;-61
2021/10/27 13:41:07;;;;;;;2.93;1.13;;;17.70;95.70;;;;;;4993227;28;20972;-61
2021/10/27 13:44:02;;;;;;;3.77;1.60;;;17.60;95.50;;;;;;4993012;28;20469;-62
2021/10/27 13:58:18;;;;;;;3.00;1.30;;;17.40;97.10;;;;;;5012842;28;20895;-61
2021/10/27 14:08:59;;;;;;;2.23;1.30;;;17.40;95.60;;;;;;5011608;28;20470;-60
2021/10/27 14:11:34;;;;;;;2.30;1.67;;;17.40;95.00;;;;;;5012815;28;20519;-60
2021/10/27 14:14:12;;;;;;;1.73;1.17;;;17.30;95.40;;;;;;5007337;28;20563;-61
2021/10/27 14:19:29;;;;;;;2.87;1.27;;;17.20;96.50;;;;;;5011261;28;21063;-61
2021/10/27 15:19:59;;;;;;;3.77;1.87;;;16.70;99.90;;;;;;5023976;28;20497;-61
2021/10/27 15:30:34;;;;;;;3.87;2.67;;;16.30;99.90;;;;;;5014147;28;20528;-61
2021/10/27 15:43:57;;;;;;;4.40;2.00;;;16.00;99.90;;;;;;5056291;28;21031;-62
2021/10/27 15:51:58;;;;;;;5.03;3.33;;;15.80;99.90;;;;;;5015467;28;20440;-61
2021/10/27 15:54:28;;;;;;;5.80;4.33;;;15.70;99.90;;;;;;5025641;28;20472;-63
2021/10/27 15:56:55;;;;;;;4.50;2.70;;;15.60;99.90;;;;;;5034065;28;20420;-61
2021/10/27 15:59:22;;;;;;;4.40;3.10;;;15.60;99.90;;;;;;5029937;28;20552;-61
2021/10/27 16:01:51;;;;;;;3.83;2.90;;;15.50;99.90;;;;;;5015429;28;20468;-61
2021/10/27 16:04:19;;;;;;;5.40;3.53;;;15.40;99.90;;;;;;5029966;28;20522;-62
2021/10/27 16:06:54;;;;;;;8.23;4.10;;;15.40;99.90;;;;;;5042265;28;20834;-62
2021/10/27 16:09:27;;;;;;;4.20;2.77;;;15.20;99.90;;;;;;5036957;28;20470;-60
2021/10/27 16:11:57;;;;;;;3.00;2.70;;;15.20;99.90;;;;;;5034909;28;20416;-61
2021/10/27 16:14:27;;;;;;;3.63;2.10;;;15.10;99.90;;;;;;5023161;28;20970;-62
2021/10/27 16:16:54;;;;;;;4.30;2.57;;;15.10;99.90;;;;;;5014820;28;20516;-63
2021/10/27 16:19:26;;;;;;;2.20;2.00;;;15.00;99.90;;;;;;5014311;28;20475;-61
2021/10/27 16:22:08;;;;;;;4.80;2.40;;;14.90;99.90;;;;;;5045620;28;20466;-61
2021/10/27 16:24:37;;;;;;;4.40;2.30;;;14.80;99.90;;;;;;5054151;28;20469;-62
2021/10/27 16:27:04;;;;;;;2.87;2.23;;;14.80;99.90;;;;;;5052496;28;20415;-62
2021/10/27 16:29:32;;;;;;;3.63;2.63;;;14.70;99.90;;;;;;5014712;28;20483;-61
2021/10/27 16:31:58;;;;;;;2.90;2.53;;;14.70;99.90;;;;;;5013568;28;20437;-61
2021/10/27 16:34:25;;;;;;;3.43;2.80;;;14.60;99.90;;;;;;5013972;28;20491;-63
2021/10/27 16:37:03;;;;;;;5.97;3.00;;;14.60;99.90;;;;;;5029444;28;20437;-61
2021/10/27 16:39:30;;;;;;;6.10;2.90;;;14.50;99.90;;;;;;5013303;28;20473;-62
2021/10/27 16:41:57;;;;;;;8.47;3.10;;;14.40;99.90;;;;;;5015288;28;20527;-62
2021/10/27 16:44:24;;;;;;;6.00;3.90;;;14.40;99.90;;;;;;5029632;28;20480;-62
2021/10/27 16:46:51;;;;;;;3.43;2.67;;;14.40;99.90;;;;;;5014354;28;20910;-63
2021/10/27 16:49:18;;;;;;;3.93;3.53;;;14.40;99.90;;;;;;5014100;28;20484;-61
2021/10/27 16:51:45;;;;;;;4.93;2.60;;;14.30;99.90;;;;;;5014597;28;20468;-61
2021/10/27 16:54:12;;;;;;;5.43;3.67;;;14.30;99.90;;;;;;5014028;28;20483;-62
2021/10/27 16:56:39;;;;;;;7.43;4.17;;;14.20;99.90;;;;;;5014381;28;20459;-61
2021/10/27 16:59:07;;;;;;;8.17;3.87;;;14.10;99.90;;;;;;5045504;28;21018;-62
2021/10/27 17:01:35;;;;;;;5.70;5.17;;;14.10;99.90;;;;;;5043909;28;20498;-61
2021/10/27 17:04:02;;;;;;;9.43;5.40;;;14.00;99.90;;;;;;5035891;28;20498;-62
2021/10/27 17:06:29;;;;;;;6.53;4.20;;;14.00;99.90;;;;;;5032975;28;20585;-63
2021/10/27 17:08:56;;;;;;;4.57;3.33;;;14.00;99.90;;;;;;5032731;28;20474;-61
2021/10/27 17:11:24;;;;;;;5.37;4.70;;;13.90;99.90;;;;;;5033984;28;20436;-61
2021/10/27 17:13:51;;;;;;;4.77;3.90;;;13.90;99.90;;;;;;5033523;28;20559;-62
2021/10/27 17:16:19;;;;;;;6.47;4.03;;;13.80;99.90;;;;;;5034720;28;20486;-62
2021/10/27 17:18:46;;;;;;;5.73;4.30;;;13.80;99.90;;;;;;5041278;28;20459;-61
2021/10/27 17:21:14;;;;;;;4.80;4.30;;;13.70;99.90;;;;;;5037174;28;20486;-61
2021/10/27 17:23:41;;;;;;;5.77;5.20;;;13.70;99.90;;;;;;5034503;28;20876;-63
2021/10/27 17:26:08;;;;;;;5.53;4.87;;;13.70;99.90;;;;;;5022686;28;20431;-62
2021/10/27 17:28:35;;;;;;;8.53;4.43;;;13.70;99.90;;;;;;5036364;28;20455;-63
2021/10/27 17:31:03;;;;;;;5.77;5.10;;;13.60;99.90;;;;;;5034130;28;20443;-61
2021/10/27 17:33:31;;;;;;;6.77;4.83;;;13.60;99.90;;;;;;5033545;28;20499;-61
2021/10/27 17:36:01;;;;;;;10.97;4.67;;;13.60;99.90;;;;;;5026275;28;20479;-62
2021/10/27 17:38:30;;;;;;;5.53;4.27;;;13.50;99.90;;;;;;5049279;28;20458;-62
2021/10/27 17:40:58;;;;;;;10.20;5.00;;;13.50;99.90;;;;;;5041811;28;20473;-61
2021/10/27 17:43:26;;;;;;;7.43;4.80;;;13.40;99.90;;;;;;5033850;28;20555;-63
2021/10/27 17:45:54;;;;;;;9.23;5.00;;;13.40;99.90;;;;;;5043700;28;20442;-63
2021/10/27 17:48:51;;;;;;;6.03;4.53;;;13.40;99.90;;;;;;5043253;28;20475;-63
2021/10/27 17:51:17;;;;;;;4.77;4.30;;;13.30;99.90;;;;;;5041197;28;20490;-61